Time,TemperatureF,DewpointF,PressureIn,WindDirection,WindDirectionDegrees,WindSpeedMPH,WindSpeedGustMPH,Humidity,HourlyPrecipIn,Conditions,Clouds,dailyrainin,SolarRadiationWatts/m^2,SoftwareType,DateUTC
2013-01-30 00:01:00,54.0,53.0,-100.00,SSW,193,3.0,7.0,98,0.08,,,0.70,0.000000,,2013-01-30 10:01:00,
2013-01-30 00:11:00,54.0,53.0,-100.00,SSW,193,3.0,7.0,98,0.08,,,0.70,0.000000,,2013-01-30 10:11:00,
2013-01-30 00:21:00,54.0,53.0,-100.00,SSW,193,3.0,7.0,98,0.08,,,0.70,0.000000,,2013-01-30 10:21:00,
2013-01-30 00:31:00,54.0,53.0,-100.00,SSW,193,3.0,7.0,98,0.08,,,0.70,0.000000,,2013-01-30 10:31:00,
2013-01-30 01:02:00,53.0,52.0,-100.00,South,174,2.0,6.0,98,0.07,,,0.76,0.000000,,2013-01-30 11:02:00,
2013-01-30 01:11:00,53.0,52.0,-100.00,South,174,2.0,6.0,98,0.07,,,0.76,0.000000,,2013-01-30 11:11:00,
2013-01-30 01:21:00,53.0,52.0,-100.00,South,174,2.0,6.0,98,0.07,,,0.76,0.000000,,2013-01-30 11:21:00,
2013-01-30 01:32:00,53.0,52.0,-100.00,South,174,2.0,6.0,98,0.07,,,0.76,0.000000,,2013-01-30 11:32:00,
2013-01-30 01:52:00,52.0,51.0,-100.00,WSW,255,2.0,4.0,98,0.01,,,0.77,0.000000,,2013-01-30 11:52:00,
2013-01-30 02:02:00,52.0,51.0,-100.00,WSW,255,2.0,4.0,98,0.01,,,0.77,0.000000,,2013-01-30 12:02:00,
2013-01-30 02:12:00,52.0,51.0,-100.00,WSW,255,2.0,4.0,98,0.01,,,0.77,0.000000,,2013-01-30 12:12:00,
2013-01-30 02:22:00,52.0,51.0,-100.00,WSW,255,2.0,4.0,98,0.01,,,0.77,0.000000,,2013-01-30 12:22:00,
2013-01-30 02:32:00,52.0,51.0,-100.00,WSW,255,2.0,4.0,98,0.01,,,0.77,0.000000,,2013-01-30 12:32:00,
2013-01-30 03:02:00,53.0,52.0,-100.00,WSW,248,3.0,4.0,98,0.00,,,0.77,0.000000,,2013-01-30 13:02:00,
2013-01-30 03:12:00,53.0,52.0,-100.00,WSW,248,3.0,4.0,98,0.00,,,0.77,0.000000,,2013-01-30 13:12:00,
2013-01-30 03:22:00,53.0,52.0,-100.00,WSW,248,3.0,4.0,98,0.00,,,0.77,0.000000,,2013-01-30 13:22:00,
2013-01-30 03:32:00,53.0,52.0,-100.00,WSW,248,3.0,4.0,98,0.00,,,0.77,0.000000,,2013-01-30 13:32:00,
2013-01-30 03:53:00,53.0,52.0,-100.00,SSW,201,5.0,8.0,98,0.02,,,0.79,0.000000,,2013-01-30 13:53:00,
2013-01-30 04:02:00,53.0,52.0,-100.00,SSW,201,5.0,8.0,98,0.02,,,0.79,0.000000,,2013-01-30 14:02:00,
2013-01-30 04:11:00,53.0,52.0,-100.00,SSW,201,5.0,8.0,98,0.02,,,0.79,0.000000,,2013-01-30 14:11:00,
2013-01-30 04:22:00,53.0,52.0,-100.00,SSW,201,5.0,8.0,98,0.02,,,0.79,0.000000,,2013-01-30 14:22:00,
2013-01-30 04:32:00,53.0,52.0,-100.00,SSW,201,5.0,8.0,98,0.02,,,0.79,0.000000,,2013-01-30 14:32:00,
2013-01-30 04:53:00,51.0,50.0,-100.00,SSW,200,7.0,11.0,98,0.02,,,0.80,0.000000,,2013-01-30 14:53:00,
2013-01-30 05:03:00,51.0,50.0,-100.00,SSW,200,7.0,11.0,98,0.02,,,0.80,0.000000,,2013-01-30 15:03:00,
2013-01-30 05:12:00,51.0,50.0,-100.00,SSW,200,7.0,11.0,98,0.02,,,0.80,0.000000,,2013-01-30 15:12:00,
2013-01-30 05:22:00,51.0,50.0,-100.00,SSW,200,7.0,11.0,98,0.02,,,0.80,0.000000,,2013-01-30 15:22:00,
2013-01-30 05:32:00,51.0,50.0,-100.00,SSW,200,7.0,11.0,98,0.02,,,0.80,0.000000,,2013-01-30 15:32:00,
2013-01-30 05:53:00,52.0,51.0,-100.00,SW,227,5.0,11.0,98,0.02,,,0.80,0.000000,,2013-01-30 15:53:00,
2013-01-30 06:03:00,52.0,51.0,-100.00,SW,227,5.0,11.0,98,0.02,,,0.80,0.000000,,2013-01-30 16:03:00,
2013-01-30 06:12:00,52.0,51.0,-100.00,SW,227,5.0,11.0,98,0.02,,,0.80,0.000000,,2013-01-30 16:12:00,
2013-01-30 06:22:00,52.0,51.0,-100.00,SW,227,5.0,11.0,98,0.02,,,0.80,0.000000,,2013-01-30 16:22:00,
2013-01-30 06:32:00,52.0,51.0,-100.00,SW,227,5.0,11.0,98,0.02,,,0.80,0.000000,,2013-01-30 16:32:00,
2013-01-30 06:52:00,52.0,51.0,-100.00,SSW,201,4.0,8.0,98,0.00,,,0.80,0.000000,,2013-01-30 16:52:00,
2013-01-30 07:02:00,52.0,51.0,-100.00,SSW,201,4.0,8.0,98,0.00,,,0.80,0.000000,,2013-01-30 17:02:00,
2013-01-30 07:12:00,52.0,51.0,-100.00,SSW,201,4.0,8.0,98,0.00,,,0.80,0.000000,,2013-01-30 17:12:00,
2013-01-30 07:22:00,52.0,51.0,-100.00,SSW,201,4.0,8.0,98,0.00,,,0.80,0.000000,,2013-01-30 17:22:00,
2013-01-30 07:31:00,52.0,51.0,-100.00,SSW,201,4.0,8.0,98,0.00,,,0.80,0.000000,,2013-01-30 17:31:00,
2013-01-30 07:53:00,51.0,50.0,-100.00,SW,225,2.0,7.0,98,0.01,,,0.80,8.000000,,2013-01-30 17:53:00,
2013-01-30 08:02:00,51.0,50.0,-100.00,SW,225,2.0,7.0,98,0.01,,,0.80,8.000000,,2013-01-30 18:02:00,
2013-01-30 08:12:00,51.0,50.0,-100.00,SW,225,2.0,7.0,98,0.01,,,0.80,8.000000,,2013-01-30 18:12:00,
2013-01-30 08:22:00,51.0,50.0,-100.00,SW,225,2.0,7.0,98,0.01,,,0.80,8.000000,,2013-01-30 18:22:00,
2013-01-30 08:32:00,51.0,50.0,-100.00,SW,225,2.0,7.0,98,0.01,,,0.80,8.000000,,2013-01-30 18:32:00,
2013-01-30 09:02:00,54.0,53.0,-100.00,SW,221,8.0,14.0,98,0.01,,,0.81,131.000000,,2013-01-30 19:02:00,
2013-01-30 09:12:00,54.0,53.0,-100.00,SW,221,8.0,14.0,98,0.01,,,0.81,131.000000,,2013-01-30 19:12:00,
2013-01-30 09:22:00,54.0,53.0,-100.00,SW,221,8.0,14.0,98,0.01,,,0.81,131.000000,,2013-01-30 19:22:00,
2013-01-30 09:32:00,54.0,53.0,-100.00,SW,221,8.0,14.0,98,0.01,,,0.81,131.000000,,2013-01-30 19:32:00,
2013-01-30 09:53:00,61.0,58.0,-100.00,SSW,199,7.0,16.0,89,0.00,,,0.81,443.000000,,2013-01-30 19:53:00,
2013-01-30 10:03:00,61.0,58.0,-100.00,SSW,199,7.0,16.0,89,0.00,,,0.81,443.000000,,2013-01-30 20:03:00,
2013-01-30 10:11:00,61.0,58.0,-100.00,SSW,199,7.0,16.0,89,0.00,,,0.81,443.000000,,2013-01-30 20:11:00,
2013-01-30 10:21:00,61.0,58.0,-100.00,SSW,199,7.0,16.0,89,0.00,,,0.81,443.000000,,2013-01-30 20:21:00,
2013-01-30 10:32:00,61.0,58.0,-100.00,SSW,199,7.0,16.0,89,0.00,,,0.81,443.000000,,2013-01-30 20:32:00,
2013-01-30 10:53:00,66.0,56.0,-100.00,South,176,4.0,13.0,70,0.00,,,-99.99,620.000000,,2013-01-30 20:53:00,
2013-01-30 11:03:00,66.0,56.0,-100.00,South,176,4.0,13.0,70,0.00,,,-99.99,620.000000,,2013-01-30 21:03:00,
2013-01-30 11:11:00,66.0,56.0,-100.00,South,176,4.0,13.0,70,0.00,,,-99.99,620.000000,,2013-01-30 21:11:00,
2013-01-30 11:22:00,66.0,56.0,-100.00,South,176,4.0,13.0,70,0.00,,,-99.99,620.000000,,2013-01-30 21:22:00,
2013-01-30 11:31:00,66.0,56.0,-100.00,South,176,4.0,13.0,70,0.00,,,-99.99,620.000000,,2013-01-30 21:31:00,
2013-01-30 11:52:00,64.0,56.0,-100.00,SSE,161,6.0,11.0,74,0.00,,,0.81,516.000000,,2013-01-30 21:52:00,
2013-01-30 12:02:00,64.0,56.0,-100.00,SSE,161,6.0,11.0,74,0.00,,,0.81,516.000000,,2013-01-30 22:02:00,
2013-01-30 12:11:00,64.0,56.0,-100.00,SSE,161,6.0,11.0,74,0.00,,,0.81,516.000000,,2013-01-30 22:11:00,
2013-01-30 12:22:00,64.0,56.0,-100.00,SSE,161,6.0,11.0,74,0.00,,,0.81,516.000000,,2013-01-30 22:22:00,
2013-01-30 12:32:00,64.0,56.0,-100.00,SSE,161,6.0,11.0,74,0.00,,,0.81,516.000000,,2013-01-30 22:32:00,
2013-01-30 13:02:00,55.0,53.0,-100.00,SSE,161,5.0,11.0,93,0.00,,,0.81,178.000000,,2013-01-30 23:02:00,
2013-01-30 13:11:00,55.0,53.0,-100.00,SSE,161,5.0,11.0,93,0.00,,,0.81,178.000000,,2013-01-30 23:11:00,
2013-01-30 13:22:00,55.0,53.0,-100.00,SSE,161,5.0,11.0,93,0.00,,,0.81,178.000000,,2013-01-30 23:22:00,
2013-01-30 13:32:00,55.0,53.0,-100.00,SSE,161,5.0,11.0,93,0.00,,,0.81,178.000000,,2013-01-30 23:32:00,
2013-01-30 13:52:00,59.0,57.0,-100.00,SSE,167,3.0,9.0,92,0.00,,,0.78,278.000000,,2013-01-30 23:52:00,
2013-01-30 14:01:00,59.0,57.0,-100.00,SSE,167,3.0,9.0,92,0.00,,,0.78,278.000000,,2013-01-31 00:01:00,
2013-01-30 14:11:00,59.0,57.0,-100.00,SSE,167,3.0,9.0,92,0.00,,,0.78,278.000000,,2013-01-31 00:11:00,
2013-01-30 14:21:00,59.0,57.0,-100.00,SSE,167,3.0,9.0,92,0.00,,,0.78,278.000000,,2013-01-31 00:21:00,
2013-01-30 14:31:00,59.0,57.0,-100.00,SSE,167,3.0,9.0,92,0.00,,,0.78,278.000000,,2013-01-31 00:31:00,
2013-01-30 14:53:00,57.0,55.0,-100.00,SSE,167,3.0,6.0,92,0.00,,,0.66,235.000000,,2013-01-31 00:53:00,
2013-01-30 15:02:00,57.0,55.0,-100.00,SSE,167,3.0,6.0,92,0.00,,,0.66,235.000000,,2013-01-31 01:02:00,
2013-01-30 15:11:00,57.0,55.0,-100.00,SSE,167,3.0,6.0,92,0.00,,,0.66,235.000000,,2013-01-31 01:11:00,
2013-01-30 15:21:00,57.0,55.0,-100.00,SSE,167,3.0,6.0,92,0.00,,,0.66,235.000000,,2013-01-31 01:21:00,
2013-01-30 15:31:00,57.0,55.0,-100.00,SSE,167,3.0,6.0,92,0.00,,,0.66,235.000000,,2013-01-31 01:31:00,
2013-01-30 16:01:00,57.0,55.0,-100.00,SSW,211,2.0,6.0,92,0.00,,,0.49,208.000000,,2013-01-31 02:01:00,
2013-01-30 16:11:00,57.0,55.0,-100.00,SSW,211,2.0,6.0,92,0.00,,,0.49,208.000000,,2013-01-31 02:11:00,
2013-01-30 16:21:00,57.0,55.0,-100.00,SSW,211,2.0,6.0,92,0.00,,,0.49,208.000000,,2013-01-31 02:21:00,
2013-01-30 16:32:00,57.0,55.0,-100.00,SSW,211,2.0,6.0,92,0.00,,,0.49,208.000000,,2013-01-31 02:32:00,
2013-01-30 17:02:00,57.0,55.0,-100.00,SE,135,0.0,4.0,92,0.01,,,0.47,154.000000,,2013-01-31 03:02:00,
2013-01-30 17:11:00,57.0,55.0,-100.00,SE,135,0.0,4.0,92,0.01,,,0.47,154.000000,,2013-01-31 03:11:00,
2013-01-30 17:21:00,57.0,55.0,-100.00,SE,135,0.0,4.0,92,0.01,,,0.47,154.000000,,2013-01-31 03:21:00,
2013-01-30 17:31:00,57.0,55.0,-100.00,SE,135,0.0,4.0,92,0.01,,,0.47,154.000000,,2013-01-31 03:31:00,
2013-01-30 17:52:00,56.0,54.0,-100.00,SE,129,2.0,5.0,94,0.09,,,0.56,50.000000,,2013-01-31 03:52:00,
2013-01-30 18:02:00,56.0,54.0,-100.00,SE,129,2.0,5.0,94,0.09,,,0.56,50.000000,,2013-01-31 04:02:00,
2013-01-30 18:11:00,56.0,54.0,-100.00,SE,129,2.0,5.0,94,0.09,,,0.56,50.000000,,2013-01-31 04:11:00,
2013-01-30 18:22:00,56.0,54.0,-100.00,SE,129,2.0,5.0,94,0.09,,,0.56,50.000000,,2013-01-31 04:22:00,
2013-01-30 18:31:00,56.0,54.0,-100.00,SE,129,2.0,5.0,94,0.09,,,0.56,50.000000,,2013-01-31 04:31:00,
2013-01-30 19:03:00,55.0,54.0,-100.00,NNE,12,1.0,4.0,96,0.01,,,0.57,9.000000,,2013-01-31 05:03:00,
2013-01-30 19:11:00,55.0,54.0,-100.00,NNE,12,1.0,4.0,96,0.01,,,0.57,9.000000,,2013-01-31 05:11:00,
2013-01-30 19:21:00,55.0,54.0,-100.00,NNE,12,1.0,4.0,96,0.01,,,0.57,9.000000,,2013-01-31 05:21:00,
2013-01-30 19:31:00,55.0,54.0,-100.00,NNE,12,1.0,4.0,96,0.01,,,0.57,9.000000,,2013-01-31 05:31:00,